createdAt,value
2017-11-05T00:01:46.007Z,77.10
2017-11-05T00:04:16.381Z,77.10
2017-11-05T00:06:47.657Z,77.00
2017-11-05T00:09:18.361Z,77.00
2017-11-05T00:11:48.062Z,77.00
2017-11-05T00:14:17.754Z,77.30
2017-11-05T00:16:47.634Z,77.90
2017-11-05T00:19:17.874Z,77.90
2017-11-05T00:21:48.145Z,78.00
2017-11-05T00:24:17.905Z,78.40
2017-11-05T00:26:47.281Z,78.80
2017-11-05T00:29:17.724Z,78.80
2017-11-05T00:31:48.148Z,79.00
2017-11-05T00:34:19.031Z,79.40
2017-11-05T00:36:48.482Z,79.40
2017-11-05T00:39:18.562Z,79.30
2017-11-05T00:41:48.164Z,79.40
2017-11-05T00:44:18.788Z,79.40
2017-11-05T00:46:48.581Z,79.60
2017-11-05T00:49:18.379Z,79.60
2017-11-05T00:51:48.647Z,79.60
2017-11-05T00:54:18.762Z,79.60
2017-11-05T00:56:48.743Z,79.60
2017-11-05T00:59:18.788Z,79.80
2017-11-05T01:01:48.444Z,80.00
2017-11-05T01:04:18.166Z,80.20
2017-11-05T01:06:47.803Z,80.20
2017-11-05T01:09:18.896Z,80.10
2017-11-05T01:11:49.016Z,80.10
2017-11-05T01:14:19.413Z,80.20
2017-11-05T01:16:49.219Z,80.30
2017-11-05T01:19:18.840Z,80.30
2017-11-05T01:21:49.220Z,80.20
2017-11-05T01:24:19.554Z,80.20
2017-11-05T01:26:49.426Z,80.30
2017-11-05T01:29:18.803Z,80.30
2017-11-05T01:31:48.439Z,80.40
2017-11-05T01:34:18.251Z,80.40
2017-11-05T01:36:56.857Z,80.50
2017-11-05T01:39:26.241Z,80.50
2017-11-05T01:41:55.317Z,80.50
2017-11-05T01:44:24.437Z,80.40
2017-11-05T01:46:54.505Z,80.60
2017-11-05T01:49:24.728Z,80.80
2017-11-05T01:51:54.898Z,80.90
2017-11-05T01:54:25.164Z,81.00
2017-11-05T01:56:54.855Z,80.90
2017-11-05T01:59:24.493Z,81.20
2017-11-05T02:01:54.319Z,81.20
2017-11-05T02:04:23.660Z,81.30
2017-11-05T02:06:53.468Z,81.50
2017-11-05T02:09:23.556Z,81.50
2017-11-05T02:11:53.900Z,81.80
2017-11-05T02:14:23.520Z,82.00
2017-11-05T02:16:52.967Z,82.30
2017-11-05T02:19:22.625Z,82.10
2017-11-05T02:21:52.612Z,82.20
2017-11-05T02:24:22.661Z,82.40
2017-11-05T02:26:53.218Z,82.40
2017-11-05T02:29:23.613Z,82.40
2017-11-05T02:31:53.707Z,82.60
2017-11-05T02:34:23.048Z,82.70
2017-11-05T02:36:52.932Z,82.60
2017-11-05T02:39:23.579Z,82.70
2017-11-05T02:41:56.142Z,82.80
2017-11-05T02:44:26.248Z,82.90
2017-11-05T02:46:56.134Z,82.90
2017-11-05T02:49:26.026Z,82.80
2017-11-05T02:51:55.946Z,82.90
2017-11-05T02:54:25.796Z,82.80
2017-11-05T02:56:55.190Z,82.80
2017-11-05T02:59:26.490Z,82.80
2017-11-05T03:01:57.584Z,82.90
2017-11-05T03:04:27.344Z,83.00
2017-11-05T03:06:56.155Z,83.00
2017-11-05T03:09:25.699Z,83.10
2017-11-05T03:11:55.769Z,83.00
2017-11-05T03:14:25.362Z,83.00
2017-11-05T03:16:55.970Z,83.00
2017-11-05T03:19:27.158Z,83.00
2017-11-05T03:21:56.713Z,83.20
2017-11-05T03:24:27.078Z,83.30
2017-11-05T03:26:57.145Z,83.40
2017-11-05T03:29:26.850Z,83.30
2017-11-05T03:31:57.439Z,83.40
2017-11-05T03:34:27.338Z,83.40
2017-11-05T03:36:57.787Z,83.30
2017-11-05T03:39:27.052Z,83.20
2017-11-05T03:41:57.261Z,83.20
2017-11-05T03:44:27.105Z,83.20
2017-11-05T03:46:57.650Z,83.10
2017-11-05T03:49:28.698Z,83.00
2017-11-05T03:51:59.111Z,83.00
2017-11-05T03:54:28.584Z,83.00
2017-11-05T03:56:59.407Z,83.00
2017-11-05T03:59:28.923Z,83.10
2017-11-05T04:01:59.812Z,83.30
2017-11-05T04:04:29.432Z,83.30
2017-11-05T04:06:58.787Z,83.40
2017-11-05T04:09:28.555Z,83.40
2017-11-05T04:11:58.183Z,83.40
2017-11-05T04:14:28.040Z,83.40
2017-11-05T04:16:58.004Z,83.40
2017-11-05T04:19:28.105Z,83.30
2017-11-05T04:21:58.522Z,83.10
2017-11-05T04:24:28.481Z,83.00
2017-11-05T04:26:58.403Z,83.10
2017-11-05T04:29:28.187Z,83.00
2017-11-05T04:31:58.608Z,83.00
2017-11-05T04:34:27.703Z,83.00
2017-11-05T04:36:56.745Z,83.10
2017-11-05T04:39:26.351Z,83.10
2017-11-05T04:41:55.752Z,83.10
2017-11-05T04:44:26.060Z,83.10
2017-11-05T04:46:55.887Z,83.20
2017-11-05T04:49:25.603Z,83.10
2017-11-05T04:51:56.139Z,83.10
2017-11-05T04:54:26.447Z,83.10
2017-11-05T04:56:55.585Z,83.10
2017-11-05T04:59:25.898Z,83.00
2017-11-05T05:01:57.457Z,83.00
2017-11-05T05:04:28.166Z,83.00
2017-11-05T05:06:58.675Z,83.20
2017-11-05T05:09:27.913Z,83.10
2017-11-05T05:11:57.903Z,83.00
2017-11-05T05:14:27.908Z,83.00
2017-11-05T05:16:58.274Z,83.00
2017-11-05T05:19:28.789Z,82.90
2017-11-05T05:21:59.044Z,82.90
2017-11-05T05:24:28.956Z,83.00
2017-11-05T05:26:57.930Z,83.00
2017-11-05T05:29:27.349Z,83.10
2017-11-05T05:31:57.450Z,83.00
2017-11-05T05:34:27.206Z,82.90
2017-11-05T05:36:57.322Z,83.00
2017-11-05T05:39:27.504Z,83.00
2017-11-05T05:41:57.968Z,83.00
2017-11-05T05:44:27.552Z,82.90
2017-11-05T05:46:57.897Z,83.00
2017-11-05T05:49:27.728Z,83.20
2017-11-05T05:51:57.024Z,83.30
2017-11-05T05:54:25.814Z,83.20
2017-11-05T05:56:54.699Z,83.20
2017-11-05T05:59:23.315Z,83.10
2017-11-05T06:01:52.478Z,83.10
2017-11-05T06:04:21.286Z,83.00
2017-11-05T06:06:50.865Z,83.00
2017-11-05T06:09:20.727Z,83.10
2017-11-05T06:11:49.923Z,83.10
2017-11-05T06:14:19.728Z,83.10
2017-11-05T06:16:49.073Z,83.10
2017-11-05T06:19:18.484Z,83.10
2017-11-05T06:21:47.749Z,83.20
2017-11-05T06:24:17.336Z,83.20
2017-11-05T06:26:47.970Z,83.10
2017-11-05T06:29:17.248Z,83.10
2017-11-05T06:31:46.882Z,83.10
2017-11-05T06:34:16.065Z,83.00
2017-11-05T06:36:45.020Z,83.20
2017-11-05T06:39:14.268Z,83.10
2017-11-05T06:41:44.717Z,83.10
2017-11-05T06:44:13.927Z,83.20
2017-11-05T06:46:42.950Z,83.30
2017-11-05T06:49:12.435Z,83.30
2017-11-05T06:51:42.226Z,83.30
2017-11-05T06:54:11.830Z,83.30
2017-11-05T06:56:41.314Z,83.30
2017-11-05T06:59:10.756Z,83.30
2017-11-05T07:01:39.974Z,83.30
2017-11-05T07:04:10.159Z,83.40
2017-11-05T07:06:39.896Z,83.40
2017-11-05T07:09:09.786Z,83.40
2017-11-05T07:11:39.097Z,83.30
2017-11-05T07:14:08.620Z,83.40
2017-11-05T07:16:37.952Z,83.40
2017-11-05T07:19:07.206Z,83.40
2017-11-05T07:21:36.966Z,83.40
2017-11-05T07:24:05.737Z,83.40
2017-11-05T07:26:34.282Z,83.40
2017-11-05T07:29:03.483Z,83.50
2017-11-05T07:31:32.809Z,83.50
2017-11-05T07:34:01.594Z,83.40
2017-11-05T07:36:31.619Z,83.50
2017-11-05T07:39:01.706Z,83.50
2017-11-05T07:41:31.176Z,83.50
2017-11-05T07:44:00.838Z,83.40
2017-11-05T07:46:30.004Z,83.30
2017-11-05T07:48:58.897Z,83.40
2017-11-05T07:51:28.237Z,83.40
2017-11-05T07:53:57.986Z,83.50
2017-11-05T07:56:27.442Z,83.70
2017-11-05T07:58:56.566Z,83.80
2017-11-05T08:01:26.229Z,84.00
2017-11-05T08:03:55.180Z,84.30
2017-11-05T08:06:25.073Z,84.40
2017-11-05T08:08:54.748Z,84.40
2017-11-05T08:11:24.191Z,84.70
2017-11-05T08:13:53.843Z,84.80
2017-11-05T08:16:23.721Z,85.00
2017-11-05T08:18:52.544Z,85.00
2017-11-05T08:21:22.355Z,84.30
2017-11-05T08:23:51.496Z,84.30
2017-11-05T08:26:20.900Z,84.00
2017-11-05T08:28:50.980Z,83.00
2017-11-05T08:31:20.528Z,83.00
2017-11-05T08:33:49.912Z,82.60
2017-11-05T08:36:19.616Z,82.70
2017-11-05T08:38:48.782Z,82.90
2017-11-05T08:41:18.917Z,82.90
2017-11-05T08:43:47.836Z,83.20
2017-11-05T08:46:17.211Z,83.10
2017-11-05T08:48:45.837Z,83.10
2017-11-05T08:51:15.089Z,82.70
2017-11-05T08:53:44.938Z,82.60
2017-11-05T08:56:14.528Z,82.60
2017-11-05T08:58:43.410Z,82.60
2017-11-05T09:01:12.594Z,82.60
2017-11-05T09:03:41.409Z,82.90
2017-11-05T09:06:11.238Z,82.90
2017-11-05T09:08:40.571Z,82.60
2017-11-05T09:11:10.094Z,82.10
2017-11-05T09:13:40.011Z,82.10
2017-11-05T09:16:09.186Z,82.20
2017-11-05T09:18:38.513Z,82.30
2017-11-05T09:21:07.725Z,82.20
2017-11-05T09:23:37.687Z,82.50
2017-11-05T09:26:06.311Z,82.20
2017-11-05T09:28:36.015Z,82.00
2017-11-05T09:31:04.820Z,82.00
2017-11-05T09:33:34.266Z,81.50
2017-11-05T09:36:05.364Z,81.50
2017-11-05T09:38:34.986Z,81.50
2017-11-05T09:41:04.770Z,81.30
2017-11-05T09:43:33.809Z,81.30
2017-11-05T09:46:03.684Z,81.40
2017-11-05T09:48:32.165Z,81.30
2017-11-05T09:51:02.120Z,80.30
2017-11-05T09:53:31.119Z,80.00
2017-11-05T09:56:00.723Z,80.00
2017-11-05T09:58:30.697Z,79.70
2017-11-05T10:00:59.692Z,79.70
2017-11-05T10:03:29.514Z,80.00
2017-11-05T10:05:59.771Z,79.50
2017-11-05T10:08:29.483Z,80.00
2017-11-05T10:10:58.855Z,80.00
2017-11-05T10:13:28.118Z,80.10
2017-11-05T10:15:57.301Z,80.30
2017-11-05T10:18:26.857Z,80.20
2017-11-05T10:20:55.820Z,80.20
2017-11-05T10:23:24.854Z,79.90
2017-11-05T10:25:54.176Z,79.60
2017-11-05T10:28:23.495Z,78.90
2017-11-05T10:30:51.809Z,78.70
2017-11-05T10:33:20.375Z,77.90
2017-11-05T10:35:50.116Z,78.70
2017-11-05T10:38:21.287Z,78.70
2017-11-05T10:40:51.146Z,78.10
2017-11-05T10:43:19.923Z,78.20
2017-11-05T10:45:48.409Z,78.30
2017-11-05T10:48:17.973Z,78.40
2017-11-05T10:50:47.564Z,78.50
2017-11-05T10:53:16.424Z,78.10
2017-11-05T10:55:45.506Z,78.10
2017-11-05T10:58:14.060Z,78.70
2017-11-05T11:00:43.457Z,78.40
2017-11-05T11:03:13.808Z,77.90
2017-11-05T11:05:42.885Z,77.90
2017-11-05T11:08:12.260Z,77.50
2017-11-05T11:10:41.972Z,78.40
2017-11-05T11:13:11.498Z,78.90
2017-11-05T11:15:40.762Z,78.50
2017-11-05T11:18:10.002Z,78.50
2017-11-05T11:20:39.545Z,78.30
2017-11-05T11:23:08.594Z,78.30
2017-11-05T11:25:38.098Z,78.40
2017-11-05T11:28:07.257Z,78.80
2017-11-05T11:30:36.499Z,78.80
2017-11-05T11:33:06.031Z,78.60
2017-11-05T11:35:34.916Z,78.70
2017-11-05T11:38:03.813Z,78.70
2017-11-05T11:40:33.703Z,79.00
2017-11-05T11:43:02.303Z,79.00
2017-11-05T11:45:31.160Z,78.40
2017-11-05T11:47:59.335Z,78.40
2017-11-05T11:50:28.899Z,77.80
2017-11-05T11:52:57.637Z,78.10
2017-11-05T11:55:26.645Z,78.10
2017-11-05T11:57:55.865Z,78.70
2017-11-05T12:00:25.320Z,78.80
2017-11-05T12:02:53.312Z,78.00
2017-11-05T12:05:21.669Z,77.80
2017-11-05T12:07:50.531Z,77.10
2017-11-05T12:10:19.040Z,76.80
2017-11-05T12:12:47.744Z,76.80
2017-11-05T12:15:16.890Z,75.60
2017-11-05T12:17:45.574Z,76.70
2017-11-05T12:20:14.024Z,77.20
2017-11-05T12:22:43.009Z,76.80
2017-11-05T12:25:11.119Z,76.90
2017-11-05T12:27:40.312Z,76.30
2017-11-05T12:30:08.900Z,75.80
2017-11-05T12:32:37.672Z,76.00
2017-11-05T12:35:06.737Z,76.50
2017-11-05T12:37:35.620Z,76.60
2017-11-05T12:40:04.221Z,75.40
2017-11-05T12:42:33.202Z,75.10
2017-11-05T12:45:02.801Z,75.10
2017-11-05T12:47:30.993Z,75.00
2017-11-05T12:49:59.620Z,74.90
2017-11-05T12:52:30.100Z,75.50
2017-11-05T12:54:59.247Z,76.00
2017-11-05T12:57:28.066Z,76.00
2017-11-05T12:59:57.003Z,75.60
2017-11-05T13:02:26.794Z,75.10
2017-11-05T13:04:56.694Z,75.50
2017-11-05T13:07:25.437Z,75.30
2017-11-05T13:09:55.524Z,74.50
2017-11-05T13:12:24.621Z,74.50
2017-11-05T13:14:53.966Z,74.10
2017-11-05T13:17:23.398Z,74.80
2017-11-05T13:19:51.882Z,74.80
2017-11-05T13:22:20.157Z,74.40
2017-11-05T13:24:49.585Z,73.70
2017-11-05T13:27:19.172Z,73.70
2017-11-05T13:29:49.906Z,74.10
2017-11-05T13:32:18.464Z,74.10
2017-11-05T13:34:47.319Z,74.80
2017-11-05T13:37:16.017Z,73.30
2017-11-05T13:39:45.292Z,73.40
2017-11-05T13:42:14.473Z,73.40
2017-11-05T13:44:43.687Z,74.10
2017-11-05T13:47:12.097Z,74.10
2017-11-05T13:49:40.860Z,73.80
2017-11-05T13:52:10.436Z,73.30
2017-11-05T13:54:38.799Z,73.30
2017-11-05T13:57:07.707Z,74.50
2017-11-05T13:59:36.582Z,74.50
2017-11-05T14:02:06.068Z,74.80
2017-11-05T14:04:35.324Z,73.50
2017-11-05T14:07:04.252Z,73.50
2017-11-05T14:09:33.696Z,72.20
2017-11-05T14:12:02.512Z,72.50
2017-11-05T14:14:31.573Z,72.90
2017-11-05T14:17:00.887Z,72.50
2017-11-05T14:19:30.257Z,72.10
2017-11-05T14:21:59.068Z,72.30
2017-11-05T14:24:28.023Z,72.30
2017-11-05T14:26:57.615Z,73.20
2017-11-05T14:29:26.923Z,73.70
2017-11-05T14:31:55.845Z,72.90
2017-11-05T14:34:25.388Z,72.20
2017-11-05T14:36:54.055Z,72.20
2017-11-05T14:39:23.445Z,71.60
2017-11-05T14:41:52.256Z,71.80
2017-11-05T14:44:20.885Z,71.80
2017-11-05T14:46:50.480Z,72.70
2017-11-05T14:49:19.852Z,73.20
2017-11-05T14:51:50.140Z,72.70
2017-11-05T14:54:19.549Z,71.30
2017-11-05T14:56:49.174Z,71.30
2017-11-05T14:59:20.287Z,71.50
2017-11-05T15:01:49.422Z,71.50
2017-11-05T15:04:18.628Z,69.70
2017-11-05T15:06:48.202Z,69.60
2017-11-05T15:09:17.296Z,70.20
2017-11-05T15:11:46.699Z,71.50
2017-11-05T15:14:26.122Z,69.20
2017-11-05T15:16:55.385Z,69.20
2017-11-05T15:19:24.924Z,69.30
2017-11-05T15:21:54.957Z,69.60
2017-11-05T15:24:24.680Z,71.80
2017-11-05T15:26:54.174Z,71.60
2017-11-05T15:29:23.181Z,71.60
2017-11-05T15:31:52.513Z,71.60
2017-11-05T15:34:21.977Z,71.80
2017-11-05T15:36:51.674Z,71.20
2017-11-05T15:39:21.650Z,71.60
2017-11-05T15:41:51.507Z,71.50
2017-11-05T15:44:20.718Z,71.50
2017-11-05T15:46:49.494Z,71.10
2017-11-05T15:49:19.638Z,73.20
2017-11-05T15:51:50.073Z,73.20
2017-11-05T15:54:19.063Z,73.10
2017-11-05T15:56:47.948Z,74.10
2017-11-05T15:59:16.555Z,73.60
2017-11-05T16:01:44.847Z,74.20
2017-11-05T16:04:13.753Z,74.50
2017-11-05T16:06:43.369Z,74.10
2017-11-05T16:09:13.159Z,74.50
2017-11-05T16:11:41.880Z,74.70
2017-11-05T16:14:11.585Z,74.40
2017-11-05T16:16:40.655Z,74.40
2017-11-05T16:19:09.020Z,74.40
2017-11-05T16:21:38.230Z,74.60
2017-11-05T16:24:08.081Z,75.00
2017-11-05T16:26:37.507Z,74.70
2017-11-05T16:29:06.411Z,74.70
2017-11-05T16:31:36.003Z,74.60
2017-11-05T16:34:05.900Z,74.90
2017-11-05T16:36:35.872Z,75.30
2017-11-05T16:39:06.096Z,74.90
2017-11-05T16:41:35.800Z,75.20
2017-11-05T16:44:05.332Z,75.20
2017-11-05T16:46:34.785Z,75.00
2017-11-05T16:49:05.497Z,74.80
2017-11-05T16:51:34.121Z,73.70
2017-11-05T16:54:02.996Z,73.90
2017-11-05T16:56:33.250Z,74.80
2017-11-05T16:59:02.737Z,75.20
2017-11-05T17:01:32.226Z,74.90
2017-11-05T17:04:01.464Z,75.10
2017-11-05T17:06:32.421Z,75.70
2017-11-05T17:09:02.463Z,74.30
2017-11-05T17:11:31.490Z,74.30
2017-11-05T17:14:01.031Z,74.70
2017-11-05T17:16:30.919Z,74.70
2017-11-05T17:19:00.736Z,75.20
2017-11-05T17:21:30.804Z,75.50
2017-11-05T17:24:00.319Z,75.60
2017-11-05T17:26:29.884Z,74.90
2017-11-05T17:28:59.281Z,74.90
2017-11-05T17:31:28.872Z,74.60
2017-11-05T17:33:58.873Z,74.50
2017-11-05T17:36:29.014Z,74.90
2017-11-05T17:38:58.952Z,74.90
2017-11-05T17:41:29.582Z,75.10
2017-11-05T17:43:58.556Z,75.00
2017-11-05T17:46:27.665Z,74.70
2017-11-05T17:48:57.509Z,74.80
2017-11-05T17:51:27.503Z,74.50
2017-11-05T17:53:57.368Z,73.80
2017-11-05T17:56:26.359Z,73.90
2017-11-05T17:58:55.197Z,73.90
2017-11-05T18:01:24.677Z,74.00
2017-11-05T18:03:54.709Z,73.90
2017-11-05T18:06:24.080Z,73.70
2017-11-05T18:08:54.132Z,73.70
2017-11-05T18:11:23.336Z,73.60
2017-11-05T18:13:53.100Z,72.40
2017-11-05T18:16:22.255Z,72.40
2017-11-05T18:18:51.960Z,71.80
2017-11-05T18:21:21.124Z,71.30
2017-11-05T18:23:50.686Z,71.30
2017-11-05T18:26:19.591Z,71.60
2017-11-05T18:28:49.341Z,71.50
2017-11-05T18:31:18.499Z,71.40
2017-11-05T18:33:47.819Z,71.20
2017-11-05T18:36:17.087Z,71.10
2017-11-05T18:38:47.013Z,70.80
2017-11-05T18:41:16.657Z,70.50
2017-11-05T18:43:46.363Z,70.50
2017-11-05T18:46:15.128Z,69.80
2017-11-05T18:48:44.834Z,70.10
2017-11-05T18:51:14.637Z,69.70
2017-11-05T18:53:43.811Z,69.70
2017-11-05T18:56:13.204Z,69.00
2017-11-05T18:58:41.986Z,69.30
2017-11-05T19:01:11.433Z,69.40
2017-11-05T19:03:40.797Z,69.30
2017-11-05T19:06:10.249Z,69.30
2017-11-05T19:08:39.037Z,68.90
2017-11-05T19:11:08.697Z,69.20
2017-11-05T19:13:39.106Z,69.30
2017-11-05T19:16:08.141Z,68.90
2017-11-05T19:18:37.449Z,69.50
2017-11-05T19:21:06.511Z,69.50
2017-11-05T19:23:35.843Z,69.40
2017-11-05T19:26:05.562Z,70.10
2017-11-05T19:28:34.996Z,69.90
2017-11-05T19:31:04.286Z,69.90
2017-11-05T19:33:34.131Z,69.80
2017-11-05T19:36:03.385Z,69.40
2017-11-05T19:38:32.040Z,69.60
2017-11-05T19:41:01.106Z,69.60
2017-11-05T19:43:29.640Z,69.60
2017-11-05T19:45:58.533Z,68.80
2017-11-05T19:48:27.854Z,69.30
2017-11-05T19:50:57.260Z,69.60
2017-11-05T19:53:26.829Z,68.40
2017-11-05T19:55:57.710Z,69.00
2017-11-05T19:58:27.361Z,69.00
2017-11-05T20:00:56.990Z,68.60
2017-11-05T20:03:26.536Z,68.60
2017-11-05T20:05:55.769Z,68.90
2017-11-05T20:08:24.165Z,68.70
2017-11-05T20:10:53.813Z,68.60
2017-11-05T20:13:23.733Z,69.40
2017-11-05T20:15:53.629Z,68.30
2017-11-05T20:18:23.175Z,68.30
2017-11-05T20:20:52.346Z,68.50
2017-11-05T20:23:21.930Z,68.60
2017-11-05T20:25:50.742Z,68.60
2017-11-05T20:28:19.724Z,69.00
2017-11-05T20:30:49.160Z,69.40
2017-11-05T20:33:18.794Z,71.00
2017-11-05T20:35:47.985Z,71.00
2017-11-05T20:38:17.423Z,71.30
2017-11-05T20:40:47.921Z,71.30
2017-11-05T20:43:18.202Z,71.80
2017-11-05T20:45:46.526Z,71.80
2017-11-05T20:48:15.781Z,71.40
2017-11-05T20:50:44.740Z,70.40
2017-11-05T20:53:13.864Z,69.50
2017-11-05T20:55:43.186Z,70.30
2017-11-05T20:58:12.615Z,69.40
2017-11-05T21:00:41.612Z,69.10
2017-11-05T21:03:11.197Z,70.00
2017-11-05T21:05:40.607Z,70.00
2017-11-05T21:08:09.327Z,71.10
2017-11-05T21:10:38.738Z,71.90
2017-11-05T21:13:10.322Z,71.90
2017-11-05T21:15:39.531Z,72.60
2017-11-05T21:18:09.877Z,70.90
2017-11-05T21:20:40.030Z,71.80
2017-11-05T21:23:09.230Z,71.80
2017-11-05T21:25:38.049Z,71.80
2017-11-05T21:28:07.308Z,71.10
2017-11-05T21:30:36.394Z,71.40
2017-11-05T21:33:05.591Z,69.90
2017-11-05T21:35:35.674Z,69.50
2017-11-05T21:38:04.844Z,69.50
2017-11-05T21:40:34.899Z,69.40
2017-11-05T21:43:04.306Z,70.00
2017-11-05T21:45:32.921Z,70.00
2017-11-05T21:48:01.801Z,69.70
2017-11-05T21:50:31.466Z,69.40
2017-11-05T21:53:01.372Z,69.10
2017-11-05T21:55:30.806Z,70.40
2017-11-05T21:58:00.641Z,70.70
2017-11-05T22:00:29.899Z,71.30
2017-11-05T22:02:59.346Z,71.50
2017-11-05T22:05:28.530Z,71.50
2017-11-05T22:07:58.844Z,69.90
2017-11-05T22:10:27.676Z,70.50
2017-11-05T22:12:56.151Z,70.20
2017-11-05T22:15:26.256Z,69.90
2017-11-05T22:17:56.672Z,70.40
2017-11-05T22:20:26.946Z,70.40
2017-11-05T22:22:56.813Z,70.00
2017-11-05T22:25:26.101Z,70.00
2017-11-05T22:27:55.888Z,70.20
2017-11-05T22:30:26.050Z,71.00
2017-11-05T22:32:55.199Z,70.70
2017-11-05T22:35:24.910Z,70.40
2017-11-05T22:37:53.976Z,70.00
2017-11-05T22:40:22.797Z,70.40
2017-11-05T22:42:52.154Z,70.30
2017-11-05T22:45:20.706Z,71.00
2017-11-05T22:47:49.317Z,71.20
2017-11-05T22:50:19.173Z,71.70
2017-11-05T22:52:48.887Z,70.70
2017-11-05T22:55:18.465Z,71.60
2017-11-05T22:57:48.280Z,71.60
2017-11-05T23:00:19.125Z,71.00
2017-11-05T23:02:48.761Z,71.20
2017-11-05T23:05:18.484Z,71.50
2017-11-05T23:07:47.711Z,71.50
2017-11-05T23:10:16.234Z,71.80
2017-11-05T23:12:45.030Z,71.80
2017-11-05T23:15:13.778Z,71.50
2017-11-05T23:17:42.974Z,70.80
2017-11-05T23:20:11.954Z,71.40
2017-11-05T23:22:41.405Z,72.30
2017-11-05T23:25:10.136Z,72.30
2017-11-05T23:27:39.995Z,72.60
2017-11-05T23:30:08.896Z,72.60
2017-11-05T23:32:38.074Z,72.30
2017-11-05T23:35:07.350Z,72.60
2017-11-05T23:37:36.269Z,72.60
2017-11-05T23:40:05.566Z,72.80
2017-11-05T23:42:34.358Z,72.90
2017-11-05T23:45:04.531Z,72.90
2017-11-05T23:47:33.916Z,73.60
2017-11-05T23:50:03.285Z,73.50
2017-11-05T23:52:32.565Z,73.50
2017-11-05T23:55:04.173Z,73.60
2017-11-05T23:57:33.122Z,73.60
